Time;durP1;ratioP1;P1;durP2;ratioP2;P2;SDS_P1;SDS_P2;PMS_P1;PMS_P2;Temp;Humidity;BMP_temperature;BMP_pressure;BME280_temperature;BME280_humidity;BME280_pressure;Samples;Min_cycle;Max_cycle;Signal;HPM_P1;HPM_P2
2023/03/18 00:01:17;;;;;;;2.55;1.70;;;20.20;62.60;;;;;;4799817;29;92819;-82
2023/03/18 00:03:42;;;;;;;4.07;1.92;;;20.20;62.60;;;;;;4798426;29;93372;-81
2023/03/18 00:06:14;;;;;;;3.15;1.63;;;20.20;62.70;;;;;;4798489;29;92508;-82
2023/03/18 00:08:41;;;;;;;2.47;1.60;;;20.10;62.60;;;;;;4796806;29;94040;-81
2023/03/18 00:11:09;;;;;;;4.20;2.00;;;20.20;62.70;;;;;;4797953;29;93501;-81
2023/03/18 00:13:36;;;;;;;3.58;1.77;;;20.20;62.70;;;;;;4799845;29;93289;-82
2023/03/18 00:16:03;;;;;;;3.92;1.58;;;20.10;62.70;;;;;;4799179;29;92641;-81
2023/03/18 00:18:30;;;;;;;3.90;1.88;;;20.10;62.70;;;;;;4798422;29;94828;-81
2023/03/18 00:20:57;;;;;;;2.97;1.55;;;20.10;62.80;;;;;;4798535;29;93028;-81
2023/03/18 00:23:25;;;;;;;2.25;1.67;;;20.10;62.80;;;;;;4798984;29;92415;-82
2023/03/18 00:25:53;;;;;;;2.13;1.48;;;20.10;62.80;;;;;;4798413;29;92653;-81
2023/03/18 00:28:19;;;;;;;2.30;1.52;;;20.10;62.80;;;;;;4799053;29;93724;-81
2023/03/18 00:30:46;;;;;;;2.75;1.58;;;20.10;62.70;;;;;;4798649;29;93609;-81
2023/03/18 00:33:12;;;;;;;2.00;1.50;;;20.10;62.60;;;;;;4798683;29;93120;-81
2023/03/18 00:35:38;;;;;;;2.17;1.42;;;20.10;62.60;;;;;;4798217;29;92111;-81
2023/03/18 00:38:06;;;;;;;2.40;1.40;;;20.10;62.90;;;;;;4798327;29;93552;-81
2023/03/18 00:43:17;;;;;;;2.10;1.40;;;20.10;62.80;;;;;;4798803;29;92977;-81
2023/03/18 00:45:42;;;;;;;3.17;1.50;;;20.10;62.90;;;;;;4798728;29;91682;-82
2023/03/18 00:48:08;;;;;;;2.05;1.55;;;20.00;62.80;;;;;;4799224;29;92309;-82
2023/03/18 00:50:35;;;;;;;3.60;1.50;;;20.10;62.80;;;;;;4797898;29;92703;-82
2023/03/18 00:53:02;;;;;;;3.90;1.58;;;20.10;62.90;;;;;;4794158;29;93317;-82
2023/03/18 00:55:28;;;;;;;2.38;1.58;;;20.00;62.70;;;;;;4799016;29;92543;-81
2023/03/18 00:57:53;;;;;;;3.15;1.55;;;20.10;62.80;;;;;;4798501;29;93438;-82
2023/03/18 01:00:20;;;;;;;3.45;1.73;;;20.10;62.60;;;;;;4797898;29;92909;-81
2023/03/18 01:02:48;;;;;;;4.07;1.95;;;20.00;62.60;;;;;;4798456;29;92662;-82
2023/03/18 01:05:15;;;;;;;2.20;1.60;;;20.00;62.80;;;;;;4799201;29;92593;-81
2023/03/18 01:07:41;;;;;;;3.15;2.00;;;20.00;62.90;;;;;;4798644;29;92893;-82
2023/03/18 01:10:08;;;;;;;2.13;1.65;;;20.00;62.60;;;;;;4780957;29;97209;-82
2023/03/18 01:12:33;;;;;;;2.13;1.23;;;20.00;62.90;;;;;;4798492;29;92592;-82
2023/03/18 01:14:59;;;;;;;2.70;1.63;;;20.00;62.70;;;;;;4797607;29;92436;-82
2023/03/18 01:17:26;;;;;;;1.67;1.50;;;20.00;62.70;;;;;;4796687;29;94509;-81
2023/03/18 01:19:52;;;;;;;1.67;1.42;;;20.00;62.80;;;;;;4796114;29;94020;-82
2023/03/18 01:22:18;;;;;;;3.72;1.63;;;20.00;63.50;;;;;;4798478;29;92186;-79
2023/03/18 01:24:45;;;;;;;1.63;1.38;;;19.90;62.70;;;;;;4782707;29;92783;-82
2023/03/18 01:27:10;;;;;;;2.35;1.45;;;20.00;62.70;;;;;;4799299;29;93344;-82
2023/03/18 01:29:36;;;;;;;1.48;1.30;;;20.00;62.80;;;;;;4798115;29;92806;-83
2023/03/18 01:32:02;;;;;;;2.58;1.45;;;20.00;62.90;;;;;;4800271;29;92061;-82
2023/03/18 01:34:29;;;;;;;2.65;1.65;;;19.90;62.60;;;;;;4802343;29;91596;-82
2023/03/18 01:36:56;;;;;;;1.77;1.30;;;20.00;62.70;;;;;;4801340;29;93415;-81
2023/03/18 01:39:23;;;;;;;2.80;1.60;;;19.90;62.60;;;;;;4800267;29;93500;-82
2023/03/18 01:41:49;;;;;;;2.47;1.20;;;19.90;62.60;;;;;;4800383;29;93000;-82
2023/03/18 01:44:21;;;;;;;3.45;1.75;;;19.90;62.70;;;;;;4800582;29;92731;-81
2023/03/18 01:46:48;;;;;;;3.65;1.60;;;19.90;62.70;;;;;;4801072;29;92929;-81
2023/03/18 01:49:48;;;;;;;2.10;1.70;;;19.90;62.70;;;;;;4802282;29;93259;-82
2023/03/18 01:52:20;;;;;;;2.25;1.40;;;19.90;62.60;;;;;;4744078;29;92484;-81
2023/03/18 01:54:55;;;;;;;2.47;1.40;;;19.90;62.60;;;;;;4742649;29;92829;-82
2023/03/18 01:57:22;;;;;;;2.00;1.48;;;19.90;62.60;;;;;;4743006;29;95593;-81
2023/03/18 01:59:51;;;;;;;2.88;1.63;;;19.90;62.60;;;;;;4741435;29;92815;-82
2023/03/18 02:02:17;;;;;;;2.50;1.50;;;19.90;62.60;;;;;;4742815;29;92392;-81
2023/03/18 02:04:55;;;;;;;2.42;1.67;;;19.90;62.70;;;;;;4743274;29;92972;-82
2023/03/18 02:07:24;;;;;;;2.38;1.35;;;19.90;62.80;;;;;;4741103;29;94739;-81
2023/03/18 02:09:51;;;;;;;2.17;1.40;;;19.90;62.80;;;;;;4739734;29;94470;-82
2023/03/18 02:12:26;;;;;;;1.60;1.40;;;19.80;62.60;;;;;;4743123;29;92326;-81
2023/03/18 02:14:52;;;;;;;2.65;1.75;;;19.90;62.70;;;;;;4741106;29;92364;-81
2023/03/18 02:17:23;;;;;;;3.00;1.65;;;19.90;62.70;;;;;;4742966;29;93705;-82
2023/03/18 02:20:12;;;;;;;2.67;1.80;;;19.90;62.60;;;;;;4740080;29;92751;-82
2023/03/18 02:22:51;;;;;;;2.17;1.30;;;19.80;62.60;;;;;;4742364;29;92530;-82
2023/03/18 02:25:40;;;;;;;1.77;1.33;;;19.80;62.60;;;;;;4743900;29;91986;-82
2023/03/18 02:28:13;;;;;;;1.48;1.38;;;19.80;62.80;;;;;;4776030;29;98107;-82
2023/03/18 02:30:46;;;;;;;2.15;1.50;;;19.80;62.80;;;;;;4798858;29;93955;-81
2023/03/18 02:33:14;;;;;;;1.42;1.23;;;19.80;62.70;;;;;;4798557;29;94128;-81
2023/03/18 02:35:43;;;;;;;2.20;1.23;;;19.80;62.60;;;;;;4800286;29;91928;-82
2023/03/18 02:38:08;;;;;;;2.53;1.55;;;19.70;62.50;;;;;;4799410;29;92596;-82
2023/03/18 02:40:38;;;;;;;2.67;1.40;;;19.80;62.80;;;;;;4800306;29;93304;-82
2023/03/18 02:43:26;;;;;;;1.77;1.40;;;19.80;62.80;;;;;;4800080;29;92749;-82
2023/03/18 02:46:13;;;;;;;1.80;1.27;;;19.80;62.70;;;;;;4800097;29;97932;-82
2023/03/18 02:48:42;;;;;;;1.88;1.42;;;19.70;63.00;;;;;;4800159;29;93264;-82
2023/03/18 02:51:09;;;;;;;2.25;1.38;;;19.80;62.80;;;;;;4800131;29;93031;-82
2023/03/18 02:53:36;;;;;;;1.90;1.35;;;19.70;62.80;;;;;;4800521;29;92153;-82
2023/03/18 02:56:02;;;;;;;1.70;1.30;;;19.70;62.80;;;;;;4799789;29;92548;-82
2023/03/18 02:58:28;;;;;;;1.15;1.05;;;19.70;62.70;;;;;;4798871;29;95105;-82
2023/03/18 03:00:54;;;;;;;1.38;1.20;;;19.70;62.80;;;;;;4799602;29;93366;-82
2023/03/18 03:03:20;;;;;;;2.15;1.40;;;19.70;62.80;;;;;;4798483;29;92434;-81
2023/03/18 03:05:47;;;;;;;2.22;1.23;;;19.70;62.80;;;;;;4800371;29;92957;-81
2023/03/18 03:08:14;;;;;;;2.03;1.25;;;19.70;62.70;;;;;;4800327;29;92653;-82
2023/03/18 03:10:40;;;;;;;1.40;1.20;;;19.60;62.70;;;;;;4799099;29;93274;-81
2023/03/18 03:13:06;;;;;;;3.15;1.40;;;19.70;62.80;;;;;;4799629;29;92628;-82
2023/03/18 03:15:32;;;;;;;2.42;1.42;;;19.60;62.80;;;;;;4799348;29;92606;-81
2023/03/18 03:17:58;;;;;;;2.38;1.20;;;19.70;63.00;;;;;;4799825;29;93582;-81
2023/03/18 03:20:23;;;;;;;1.83;1.25;;;19.70;62.70;;;;;;4799453;29;92525;-82
2023/03/18 03:22:49;;;;;;;1.75;1.30;;;19.70;62.90;;;;;;4799619;29;93622;-82
2023/03/18 03:25:15;;;;;;;2.38;1.42;;;19.70;63.00;;;;;;4800926;29;92728;-82
2023/03/18 03:27:41;;;;;;;2.35;1.55;;;19.70;62.80;;;;;;4800002;29;93715;-82
2023/03/18 03:30:08;;;;;;;3.53;1.77;;;19.70;62.90;;;;;;4798890;29;92834;-82
2023/03/18 03:32:34;;;;;;;1.67;1.30;;;19.70;63.00;;;;;;4800043;29;92487;-81
2023/03/18 03:35:00;;;;;;;2.35;1.52;;;19.60;62.80;;;;;;4799827;29;92142;-82
2023/03/18 03:37:26;;;;;;;2.38;1.35;;;19.60;62.80;;;;;;4800520;29;92747;-81
2023/03/18 03:39:52;;;;;;;1.95;1.00;;;19.60;62.80;;;;;;4799592;29;92905;-82
2023/03/18 03:42:18;;;;;;;1.83;1.33;;;19.60;62.90;;;;;;4799776;29;92644;-82
2023/03/18 03:44:45;;;;;;;2.55;1.70;;;19.60;62.80;;;;;;4798027;29;92162;-82
2023/03/18 03:47:11;;;;;;;1.33;1.23;;;19.60;62.80;;;;;;4798055;29;94639;-82
2023/03/18 03:49:36;;;;;;;2.17;1.70;;;19.60;62.80;;;;;;4800567;29;94123;-81
2023/03/18 03:52:03;;;;;;;2.08;1.33;;;19.60;62.80;;;;;;4799419;29;92589;-82
2023/03/18 03:54:29;;;;;;;2.33;1.50;;;19.60;62.90;;;;;;4783080;29;92312;-82
2023/03/18 03:56:54;;;;;;;2.08;1.45;;;19.60;62.80;;;;;;4799478;29;93602;-81
2023/03/18 03:59:20;;;;;;;1.67;1.40;;;19.60;63.10;;;;;;4799240;29;93090;-82
2023/03/18 04:01:46;;;;;;;1.50;1.38;;;19.60;62.80;;;;;;4799333;29;92302;-81
2023/03/18 04:04:12;;;;;;;1.75;1.35;;;19.60;63.10;;;;;;4800206;29;91366;-82
2023/03/18 04:06:37;;;;;;;2.50;1.48;;;19.60;63.00;;;;;;4799619;29;92346;-82
2023/03/18 04:09:03;;;;;;;1.40;1.13;;;19.60;63.20;;;;;;4797770;29;94146;-81
2023/03/18 04:11:29;;;;;;;1.92;1.42;;;19.60;62.90;;;;;;4798865;29;93667;-82
2023/03/18 04:13:55;;;;;;;2.03;1.58;;;19.50;62.80;;;;;;4799028;29;92598;-81
2023/03/18 04:16:22;;;;;;;1.83;1.40;;;19.50;62.90;;;;;;4800212;29;93632;-81
2023/03/18 04:18:47;;;;;;;1.92;1.58;;;19.50;62.80;;;;;;4799579;29;93347;-81
2023/03/18 04:21:13;;;;;;;1.83;1.20;;;19.50;62.80;;;;;;4797893;29;92578;-82
2023/03/18 04:23:39;;;;;;;1.33;1.20;;;19.50;63.00;;;;;;4797546;29;92426;-82
2023/03/18 04:26:05;;;;;;;2.70;1.30;;;19.50;62.80;;;;;;4799302;29;93017;-81
2023/03/18 04:28:31;;;;;;;1.80;1.60;;;19.50;62.90;;;;;;4799597;29;93248;-81
2023/03/18 04:30:57;;;;;;;1.88;1.60;;;19.50;62.80;;;;;;4800077;29;92348;-82
2023/03/18 04:33:23;;;;;;;1.48;1.25;;;19.50;62.90;;;;;;4797503;29;92014;-82
2023/03/18 04:35:49;;;;;;;2.00;1.33;;;19.50;62.70;;;;;;4797947;29;93908;-81
2023/03/18 04:38:14;;;;;;;1.77;1.33;;;19.50;62.90;;;;;;4798365;29;93725;-81
2023/03/18 04:40:41;;;;;;;1.90;1.58;;;19.40;62.90;;;;;;4789397;29;92538;-82
2023/03/18 04:43:08;;;;;;;2.17;1.40;;;19.50;63.10;;;;;;4797889;29;92074;-81
2023/03/18 04:45:34;;;;;;;1.30;1.20;;;19.50;62.90;;;;;;4779129;29;94683;-82
2023/03/18 04:48:00;;;;;;;2.83;1.40;;;19.50;62.90;;;;;;4798647;29;92774;-81
2023/03/18 04:50:27;;;;;;;2.60;1.65;;;19.50;63.00;;;;;;4798711;29;92631;-81
2023/03/18 04:52:53;;;;;;;2.40;1.30;;;19.40;63.00;;;;;;4797254;29;91323;-81
2023/03/18 04:55:20;;;;;;;1.85;1.27;;;19.40;62.80;;;;;;4799848;29;92949;-82
2023/03/18 04:57:47;;;;;;;2.67;1.40;;;19.40;62.80;;;;;;4801217;29;92770;-82
2023/03/18 05:00:16;;;;;;;1.98;1.33;;;19.40;62.70;;;;;;4801524;29;93426;-82
2023/03/18 05:02:42;;;;;;;1.90;1.52;;;19.40;62.70;;;;;;4801132;29;93330;-82
2023/03/18 05:05:09;;;;;;;1.27;1.02;;;19.40;62.90;;;;;;4801027;29;93581;-81
2023/03/18 05:07:35;;;;;;;1.88;1.48;;;19.40;62.90;;;;;;4801626;29;92311;-81
2023/03/18 05:10:03;;;;;;;1.60;1.38;;;19.40;62.90;;;;;;4802234;29;91998;-81
2023/03/18 05:12:29;;;;;;;1.95;1.58;;;19.40;62.80;;;;;;4801772;29;92056;-81
2023/03/18 05:14:54;;;;;;;3.00;1.70;;;19.40;62.90;;;;;;4801298;29;92593;-82
2023/03/18 05:17:20;;;;;;;1.48;1.15;;;19.40;63.00;;;;;;4802317;29;93216;-82
2023/03/18 05:19:47;;;;;;;1.67;1.40;;;19.40;63.00;;;;;;4801199;29;91974;-82
2023/03/18 05:22:16;;;;;;;1.92;1.20;;;19.40;62.90;;;;;;4802137;29;92487;-82
2023/03/18 05:24:42;;;;;;;3.03;1.70;;;19.40;62.90;;;;;;4800927;29;95019;-82
2023/03/18 05:27:09;;;;;;;1.33;1.02;;;19.30;62.70;;;;;;4801612;29;93985;-82
2023/03/18 05:29:37;;;;;;;1.83;1.40;;;19.30;62.70;;;;;;4800776;29;92354;-82
2023/03/18 05:32:05;;;;;;;1.50;1.23;;;19.30;62.90;;;;;;4800535;29;91984;-82
2023/03/18 05:34:32;;;;;;;2.07;1.33;;;19.30;62.80;;;;;;4800651;29;92689;-82
2023/03/18 05:36:58;;;;;;;2.00;1.30;;;19.30;62.80;;;;;;4801088;29;93213;-82
2023/03/18 05:39:23;;;;;;;1.70;1.20;;;19.30;62.90;;;;;;4801316;29;92498;-81
2023/03/18 05:41:49;;;;;;;2.00;1.42;;;19.30;62.70;;;;;;4800793;29;91682;-82
2023/03/18 05:44:15;;;;;;;2.42;1.58;;;19.30;62.80;;;;;;4801132;29;93162;-81
2023/03/18 05:46:42;;;;;;;1.42;1.30;;;19.30;62.80;;;;;;4801160;29;92375;-81
2023/03/18 05:49:07;;;;;;;1.42;1.08;;;19.30;62.80;;;;;;4801727;29;92936;-81
2023/03/18 05:51:33;;;;;;;1.27;1.17;;;19.30;62.80;;;;;;4801511;29;91977;-82
2023/03/18 05:53:59;;;;;;;1.83;1.42;;;19.30;62.60;;;;;;4800876;29;94313;-81
2023/03/18 05:56:25;;;;;;;1.40;1.10;;;19.30;62.70;;;;;;4800060;29;92789;-81
2023/03/18 05:58:51;;;;;;;1.38;1.20;;;19.30;62.90;;;;;;4800429;29;92558;-83
2023/03/18 06:01:18;;;;;;;1.30;1.20;;;19.20;62.70;;;;;;4801902;29;92045;-81
2023/03/18 06:03:46;;;;;;;1.42;1.25;;;19.20;62.70;;;;;;4800597;29;92403;-82
2023/03/18 06:06:19;;;;;;;1.80;1.48;;;19.30;62.70;;;;;;4800933;29;92028;-82
2023/03/18 06:08:45;;;;;;;1.65;1.25;;;19.20;62.80;;;;;;4799775;29;92864;-82
2023/03/18 06:11:11;;;;;;;1.63;1.20;;;19.20;63.00;;;;;;4799701;29;92004;-82
2023/03/18 06:13:37;;;;;;;1.58;1.30;;;19.20;62.70;;;;;;4800546;29;94453;-81
2023/03/18 06:16:04;;;;;;;1.90;1.52;;;19.20;62.70;;;;;;4801191;29;93903;-82
2023/03/18 06:18:30;;;;;;;2.58;1.75;;;19.20;62.50;;;;;;4802499;29;92422;-81
2023/03/18 06:20:56;;;;;;;1.58;1.20;;;19.30;62.60;;;;;;4802273;29;91948;-82
2023/03/18 06:23:22;;;;;;;1.45;1.17;;;19.40;62.40;;;;;;4802374;29;93108;-83
2023/03/18 06:25:48;;;;;;;1.85;1.30;;;19.40;62.10;;;;;;4767500;29;92934;-82
2023/03/18 06:28:14;;;;;;;2.22;1.50;;;19.60;62.20;;;;;;4802272;29;92548;-82
2023/03/18 06:30:40;;;;;;;1.40;1.17;;;19.70;62.30;;;;;;4802039;29;91641;-82
2023/03/18 06:33:07;;;;;;;3.70;1.42;;;19.80;62.00;;;;;;4800301;29;93378;-82
2023/03/18 06:35:33;;;;;;;1.58;1.20;;;19.90;62.50;;;;;;4801902;29;93247;-83
2023/03/18 06:37:58;;;;;;;1.90;1.40;;;20.00;61.90;;;;;;4801844;29;92996;-81
2023/03/18 06:40:24;;;;;;;4.30;1.70;;;20.10;61.90;;;;;;4801795;29;92249;-81
2023/03/18 06:42:50;;;;;;;4.28;1.65;;;20.10;61.20;;;;;;4800332;29;92913;-81
2023/03/18 06:45:16;;;;;;;4.70;2.03;;;20.20;61.20;;;;;;4798235;29;96924;-81
2023/03/18 06:47:43;;;;;;;4.25;1.30;;;20.30;61.30;;;;;;4801245;29;92393;-81
2023/03/18 06:50:09;;;;;;;2.80;1.70;;;20.30;61.30;;;;;;4800468;29;91962;-82
2023/03/18 06:52:36;;;;;;;1.70;1.50;;;20.20;61.60;;;;;;4801210;29;93205;-81
2023/03/18 06:55:02;;;;;;;4.35;1.63;;;20.20;61.80;;;;;;4800830;29;93251;-81
2023/03/18 06:57:29;;;;;;;1.88;1.67;;;20.20;62.10;;;;;;4801995;29;92463;-81
2023/03/18 06:59:56;;;;;;;3.72;1.63;;;20.20;61.90;;;;;;4801209;29;92360;-81
2023/03/18 07:02:26;;;;;;;2.60;1.40;;;20.20;62.10;;;;;;4800077;29;93639;-81
2023/03/18 07:04:52;;;;;;;2.80;1.40;;;20.20;62.20;;;;;;4800376;29;94187;-80
2023/03/18 07:07:18;;;;;;;2.10;1.50;;;20.10;62.60;;;;;;4801428;29;92467;-80
2023/03/18 07:09:44;;;;;;;4.97;1.60;;;20.10;62.60;;;;;;4800490;29;92373;-80
2023/03/18 07:12:12;;;;;;;2.35;1.50;;;20.00;62.70;;;;;;4800000;29;92663;-81
2023/03/18 07:14:39;;;;;;;3.17;1.73;;;20.10;63.00;;;;;;4800530;29;93457;-80
2023/03/18 07:17:05;;;;;;;5.63;2.10;;;20.10;63.00;;;;;;4801517;29;91947;-80
2023/03/18 07:19:32;;;;;;;4.32;1.63;;;20.10;62.50;;;;;;4799567;29;91878;-80
2023/03/18 07:21:58;;;;;;;7.65;2.55;;;20.10;62.50;;;;;;4798778;29;93545;-80
2023/03/18 07:24:25;;;;;;;5.72;1.90;;;20.10;61.90;;;;;;4799756;29;92470;-80
2023/03/18 07:26:51;;;;;;;4.47;1.75;;;20.10;61.80;;;;;;4798727;29;94159;-80
2023/03/18 07:29:17;;;;;;;6.35;1.92;;;20.20;62.10;;;;;;4777169;29;92384;-80
2023/03/18 07:31:43;;;;;;;11.35;2.90;;;20.20;62.10;;;;;;4795338;29;92645;-81
2023/03/18 07:34:10;;;;;;;8.55;2.92;;;20.20;61.50;;;;;;4799709;29;93191;-83
2023/03/18 07:36:36;;;;;;;10.70;2.67;;;20.20;61.40;;;;;;4799463;29;92181;-81
2023/03/18 07:39:03;;;;;;;8.52;2.40;;;20.10;61.80;;;;;;4797375;29;92183;-81
2023/03/18 07:41:29;;;;;;;8.05;1.85;;;20.10;61.80;;;;;;4797929;29;95000;-81
2023/03/18 07:43:58;;;;;;;9.43;2.40;;;20.10;62.20;;;;;;4797314;29;92409;-80
2023/03/18 07:46:24;;;;;;;9.52;2.70;;;20.10;62.40;;;;;;4799826;29;92303;-80
2023/03/18 07:48:50;;;;;;;8.90;2.28;;;20.10;62.40;;;;;;4799921;29;92026;-81
2023/03/18 07:51:16;;;;;;;9.32;2.13;;;20.10;62.10;;;;;;4796755;29;96169;-79
2023/03/18 07:53:43;;;;;;;9.95;2.55;;;20.10;62.20;;;;;;4799667;29;93326;-80
2023/03/18 07:56:09;;;;;;;5.82;2.08;;;20.10;62.30;;;;;;4799337;29;92433;-81
2023/03/18 07:58:36;;;;;;;7.45;2.15;;;20.10;62.40;;;;;;4796683;29;92540;-79
2023/03/18 08:01:02;;;;;;;4.93;2.15;;;20.10;62.60;;;;;;4795700;29;93169;-80
2023/03/18 08:03:28;;;;;;;8.05;2.30;;;20.00;62.80;;;;;;4786705;29;95576;-80
2023/03/18 08:05:54;;;;;;;9.82;2.40;;;20.10;63.30;;;;;;4797101;29;92127;-80
2023/03/18 08:08:21;;;;;;;8.75;2.10;;;20.00;62.90;;;;;;4799125;29;91443;-80
2023/03/18 08:10:47;;;;;;;5.00;1.90;;;20.00;62.80;;;;;;4798828;29;93544;-80
2023/03/18 08:13:12;;;;;;;5.07;2.00;;;20.10;63.00;;;;;;4800230;29;92380;-80
2023/03/18 08:15:39;;;;;;;5.85;2.45;;;20.00;63.00;;;;;;4797933;29;93214;-80
2023/03/18 08:18:05;;;;;;;6.32;2.13;;;20.10;63.30;;;;;;4797381;29;92206;-80
2023/03/18 08:20:31;;;;;;;11.15;2.85;;;20.10;63.30;;;;;;4796962;29;92555;-80
2023/03/18 08:22:56;;;;;;;7.63;2.55;;;20.10;63.00;;;;;;4799695;29;93124;-80
2023/03/18 08:25:23;;;;;;;8.43;2.30;;;20.10;63.20;;;;;;4800457;29;92546;-80
2023/03/18 08:27:51;;;;;;;10.23;2.30;;;20.20;63.10;;;;;;4800384;29;92585;-80
2023/03/18 08:30:17;;;;;;;4.05;1.88;;;20.20;63.40;;;;;;4800555;29;92643;-80
2023/03/18 08:32:43;;;;;;;7.63;2.25;;;20.20;63.70;;;;;;4803092;29;92498;-80
2023/03/18 08:35:10;;;;;;;7.15;2.22;;;20.20;63.20;;;;;;4803134;29;92203;-80
2023/03/18 08:37:36;;;;;;;9.80;2.90;;;20.30;63.20;;;;;;4804375;29;92065;-80
2023/03/18 08:40:03;;;;;;;9.93;2.45;;;20.30;62.70;;;;;;4803156;29;94650;-81
2023/03/18 08:42:29;;;;;;;4.82;2.20;;;20.30;62.80;;;;;;4803683;29;93852;-80
2023/03/18 08:44:55;;;;;;;10.13;2.70;;;20.30;62.70;;;;;;4803902;29;92137;-80
2023/03/18 08:47:23;;;;;;;8.52;2.65;;;20.30;62.90;;;;;;4803942;29;92278;-81
2023/03/18 08:49:50;;;;;;;7.00;2.63;;;20.40;62.60;;;;;;4802932;29;92872;-80
2023/03/18 08:52:16;;;;;;;12.05;2.95;;;20.50;62.10;;;;;;4802735;29;92548;-81
2023/03/18 08:54:42;;;;;;;5.70;2.10;;;20.50;62.30;;;;;;4803203;29;92751;-80
2023/03/18 08:57:08;;;;;;;9.73;2.92;;;20.50;62.50;;;;;;4802252;29;91837;-80
2023/03/18 08:59:35;;;;;;;10.57;3.10;;;20.50;62.60;;;;;;4785919;29;94598;-80
2023/03/18 09:02:01;;;;;;;12.25;3.63;;;20.50;62.40;;;;;;4802017;29;92860;-80
2023/03/18 09:04:28;;;;;;;12.35;3.58;;;20.50;62.60;;;;;;4801390;29;93402;-81
2023/03/18 09:06:54;;;;;;;11.60;3.45;;;20.50;62.40;;;;;;4802249;29;92518;-80
2023/03/18 09:09:19;;;;;;;9.75;3.40;;;20.60;62.50;;;;;;4802134;29;95146;-81
2023/03/18 09:11:46;;;;;;;16.13;3.20;;;20.50;62.30;;;;;;4797697;29;93170;-81
2023/03/18 09:14:12;;;;;;;9.82;3.67;;;20.60;62.30;;;;;;4793126;29;93183;-80
2023/03/18 09:16:38;;;;;;;12.73;3.67;;;20.60;62.30;;;;;;4794373;29;92067;-80
2023/03/18 09:19:04;;;;;;;13.35;3.75;;;20.60;62.30;;;;;;4794167;29;93063;-80
2023/03/18 09:21:30;;;;;;;11.60;3.10;;;20.60;62.10;;;;;;4790778;29;93424;-81
2023/03/18 09:23:56;;;;;;;12.25;3.55;;;20.70;62.30;;;;;;4791696;29;92420;-81
2023/03/18 09:26:22;;;;;;;12.13;3.53;;;20.70;62.30;;;;;;4790906;29;93158;-82
2023/03/18 09:28:48;;;;;;;11.00;3.50;;;20.70;62.20;;;;;;4790808;29;94629;-81
2023/03/18 09:31:14;;;;;;;14.23;4.03;;;20.70;62.00;;;;;;4791421;29;94851;-79
2023/03/18 09:33:41;;;;;;;11.05;3.67;;;20.80;61.50;;;;;;4788413;29;92511;-79
2023/03/18 09:36:08;;;;;;;12.27;3.85;;;20.70;60.30;;;;;;4782384;29;92527;-79
2023/03/18 09:38:34;;;;;;;17.25;3.92;;;20.70;59.90;;;;;;4788669;29;93666;-81
2023/03/18 09:41:02;;;;;;;12.52;4.00;;;20.80;60.90;;;;;;4791903;29;96912;-80
2023/03/18 09:44:09;;;;;;;16.10;4.13;;;20.80;60.90;;;;;;4792145;29;92483;-79
2023/03/18 09:46:56;;;;;;;14.27;4.25;;;20.80;60.50;;;;;;4697688;29;92330;-79
2023/03/18 09:49:59;;;;;;;14.45;4.07;;;20.80;60.70;;;;;;4700867;29;93739;-80
2023/03/18 09:52:34;;;;;;;13.60;4.68;;;20.80;61.10;;;;;;4683778;29;100609;-80
2023/03/18 09:55:16;;;;;;;14.43;3.85;;;20.80;61.10;;;;;;4695901;29;93114;-79
2023/03/18 09:57:47;;;;;;;14.98;4.47;;;20.70;60.80;;;;;;4693959;29;94651;-78
2023/03/18 10:00:23;;;;;;;13.05;4.60;;;20.70;61.20;;;;;;4699388;29;93920;-81
2023/03/18 10:03:03;;;;;;;14.63;4.88;;;20.70;61.20;;;;;;4701247;29;92842;-81
2023/03/18 10:05:34;;;;;;;17.65;4.78;;;20.70;61.40;;;;;;4696870;29;92457;-78
2023/03/18 10:08:12;;;;;;;24.73;5.10;;;20.60;61.50;;;;;;4695222;29;92784;-79
2023/03/18 10:10:41;;;;;;;11.70;4.18;;;20.60;61.90;;;;;;4682766;29;93712;-79
2023/03/18 10:13:28;;;;;;;17.85;4.82;;;20.60;62.20;;;;;;4706675;29;93156;-79
2023/03/18 10:15:58;;;;;;;18.20;4.97;;;20.60;61.70;;;;;;4708363;29;92743;-80
2023/03/18 10:18:32;;;;;;;14.95;5.10;;;20.50;62.00;;;;;;4705951;29;92499;-79
2023/03/18 10:21:19;;;;;;;17.85;4.70;;;20.50;62.00;;;;;;4766908;29;94482;-81
2023/03/18 10:24:00;;;;;;;15.68;4.50;;;20.50;62.30;;;;;;4787817;29;93789;-80
2023/03/18 10:26:34;;;;;;;16.70;5.20;;;20.40;62.10;;;;;;4798963;29;92266;-80
2023/03/18 10:29:07;;;;;;;15.95;4.63;;;20.40;62.50;;;;;;4798026;29;92392;-80
2023/03/18 10:32:01;;;;;;;14.98;4.82;;;20.40;62.40;;;;;;4800947;29;93231;-81
2023/03/18 10:34:52;;;;;;;15.52;4.55;;;20.30;62.40;;;;;;4797805;29;98750;-80
2023/03/18 10:37:46;;;;;;;24.00;4.82;;;20.30;62.60;;;;;;4741059;29;92744;-80
2023/03/18 10:40:17;;;;;;;10.60;4.38;;;20.30;61.90;;;;;;4742039;29;92373;-80
2023/03/18 10:42:44;;;;;;;13.55;4.70;;;20.30;62.40;;;;;;4742674;29;93160;-79
2023/03/18 10:45:40;;;;;;;16.77;5.95;;;20.20;62.40;;;;;;4743324;29;93719;-81
2023/03/18 10:48:23;;;;;;;16.75;4.90;;;20.20;63.00;;;;;;4678799;30;93609;-81
2023/03/18 10:51:18;;;;;;;15.93;4.75;;;20.10;61.50;;;;;;4682691;30;92078;-80
2023/03/18 10:54:06;;;;;;;14.00;4.85;;;20.10;60.90;;;;;;4679818;30;92483;-81
2023/03/18 10:56:34;;;;;;;13.13;4.72;;;20.10;61.80;;;;;;4679602;30;93436;-81
2023/03/18 10:59:00;;;;;;;15.13;5.18;;;20.10;62.80;;;;;;4679350;30;92795;-80
2023/03/18 11:01:27;;;;;;;16.23;4.90;;;20.20;63.90;;;;;;4680347;30;92541;-80
2023/03/18 11:04:04;;;;;;;16.00;6.03;;;20.20;65.60;;;;;;4678476;30;92656;-79
2023/03/18 11:06:44;;;;;;;16.67;5.47;;;20.20;65.60;;;;;;4678904;30;92928;-80
2023/03/18 11:09:14;;;;;;;9.48;4.28;;;20.20;66.50;;;;;;4676394;30;93369;-80
2023/03/18 11:12:02;;;;;;;12.48;4.65;;;20.20;66.40;;;;;;4678267;30;93089;-80
2023/03/18 11:14:30;;;;;;;12.38;5.22;;;20.20;66.20;;;;;;4638317;30;95062;-80
2023/03/18 11:17:03;;;;;;;16.10;4.43;;;20.10;66.00;;;;;;4652302;30;93403;-79
2023/03/18 11:19:38;;;;;;;18.13;4.75;;;20.10;65.00;;;;;;4655145;30;92240;-80
2023/03/18 11:22:06;;;;;;;22.67;5.10;;;20.00;64.40;;;;;;4643156;30;93118;-80
2023/03/18 11:24:38;;;;;;;12.23;5.07;;;20.10;64.70;;;;;;4683004;29;92135;-80
2023/03/18 11:27:17;;;;;;;14.80;4.97;;;20.10;65.60;;;;;;4714567;29;92930;-80
2023/03/18 11:29:48;;;;;;;14.25;4.97;;;20.10;65.60;;;;;;4712638;29;92690;-79
2023/03/18 11:32:29;;;;;;;16.10;5.35;;;20.10;65.30;;;;;;4714359;29;92050;-79
2023/03/18 11:35:00;;;;;;;12.38;4.70;;;20.20;65.30;;;;;;4715073;29;94289;-82
2023/03/18 11:37:38;;;;;;;14.23;4.65;;;20.30;64.90;;;;;;4714147;29;94089;-80
2023/03/18 11:40:25;;;;;;;15.98;4.80;;;20.30;64.70;;;;;;4712196;29;93232;-79
2023/03/18 11:42:55;;;;;;;15.40;4.68;;;20.30;64.80;;;;;;4713282;29;93146;-80
2023/03/18 11:45:44;;;;;;;12.68;4.18;;;20.30;64.60;;;;;;4712374;29;96747;-80
2023/03/18 11:48:17;;;;;;;14.70;4.13;;;20.30;64.80;;;;;;4713711;29;94005;-80
2023/03/18 11:51:12;;;;;;;11.90;4.38;;;20.30;64.80;;;;;;4718507;29;92089;-79
2023/03/18 11:53:56;;;;;;;17.30;4.75;;;20.40;64.60;;;;;;4685518;30;92438;-79
2023/03/18 11:56:37;;;;;;;9.82;4.20;;;20.30;64.50;;;;;;4685260;30;93626;-80
2023/03/18 11:59:26;;;;;;;8.88;3.90;;;20.30;64.50;;;;;;4685317;30;93465;-80
2023/03/18 12:02:18;;;;;;;11.30;3.75;;;20.40;64.60;;;;;;4624660;30;92541;-80
2023/03/18 12:05:01;;;;;;;10.60;4.28;;;20.30;64.60;;;;;;4623452;30;92575;-80
2023/03/18 12:07:43;;;;;;;13.65;4.97;;;20.30;64.50;;;;;;4628804;30;94611;-80
2023/03/18 12:10:13;;;;;;;12.55;4.07;;;20.30;64.30;;;;;;4625100;30;98108;-80
2023/03/18 12:12:48;;;;;;;13.32;4.95;;;20.40;63.90;;;;;;4640612;30;92705;-80
2023/03/18 12:15:54;;;;;;;12.63;4.72;;;20.40;64.00;;;;;;4646981;30;92230;-80
2023/03/18 12:18:55;;;;;;;11.73;3.85;;;20.40;63.90;;;;;;4557612;30;92992;-80
2023/03/18 12:21:57;;;;;;;8.38;3.90;;;20.50;63.90;;;;;;4585975;30;93302;-80
2023/03/18 12:24:37;;;;;;;11.48;4.25;;;20.50;63.60;;;;;;4586632;30;92515;-80
2023/03/18 12:27:20;;;;;;;11.00;4.47;;;20.50;63.30;;;;;;4587357;30;91939;-80
2023/03/18 12:29:55;;;;;;;10.57;3.70;;;20.60;63.30;;;;;;4591103;30;94477;-80
2023/03/18 12:32:25;;;;;;;11.38;4.07;;;20.60;63.20;;;;;;4648015;30;93916;-81
2023/03/18 12:34:59;;;;;;;10.20;3.85;;;20.60;63.10;;;;;;4646519;30;93441;-80
2023/03/18 12:37:54;;;;;;;9.00;4.22;;;20.60;63.00;;;;;;4647367;30;92616;-80
2023/03/18 12:40:47;;;;;;;12.18;4.50;;;20.60;62.80;;;;;;4724247;29;97687;-80
2023/03/18 12:43:16;;;;;;;13.18;5.35;;;20.60;63.20;;;;;;4722589;29;97110;-79
2023/03/18 12:45:46;;;;;;;13.30;5.55;;;20.60;62.50;;;;;;4720107;29;92561;-79
2023/03/18 12:48:18;;;;;;;16.17;5.65;;;20.60;62.40;;;;;;4730485;29;92599;-80
2023/03/18 12:50:57;;;;;;;10.20;4.57;;;20.60;62.40;;;;;;4799183;29;92869;-80
2023/03/18 12:53:45;;;;;;;11.25;4.75;;;20.60;62.90;;;;;;4799969;29;93300;-81
2023/03/18 12:56:23;;;;;;;15.75;4.53;;;20.60;63.00;;;;;;4798919;29;92084;-80
2023/03/18 12:59:00;;;;;;;13.65;4.32;;;20.60;63.00;;;;;;4798894;29;91867;-80
2023/03/18 13:01:48;;;;;;;11.32;4.53;;;20.60;62.90;;;;;;4797810;29;96337;-80